sensor_id;sensor_type;location;lat;lon;timestamp;pressure;altitude;pressure_sealevel;temperature;humidity
65718;BME280;52445;52.466;-1.016;2023-12-22T00:00:23;99560.91;;;9.15;66.13
65718;BME280;52445;52.466;-1.016;2023-12-22T00:02:50;99560.88;;;9.18;66.11
65718;BME280;52445;52.466;-1.016;2023-12-22T00:05:16;99563.47;;;9.11;66.20
65718;BME280;52445;52.466;-1.016;2023-12-22T00:07:43;99559.19;;;9.12;66.38
65718;BME280;52445;52.466;-1.016;2023-12-22T00:10:10;99563.53;;;9.00;66.20
65718;BME280;52445;52.466;-1.016;2023-12-22T00:12:37;99570.41;;;9.05;66.07
65718;BME280;52445;52.466;-1.016;2023-12-22T00:15:05;99573.00;;;9.05;66.25
65718;BME280;52445;52.466;-1.016;2023-12-22T00:17:32;99566.06;;;9.07;66.23
65718;BME280;52445;52.466;-1.016;2023-12-22T00:19:59;99565.19;;;9.08;66.99
65718;BME280;52445;52.466;-1.016;2023-12-22T00:22:29;99561.78;;;9.04;66.46
65718;BME280;52445;52.466;-1.016;2023-12-22T00:24:57;99554.91;;;9.02;66.74
65718;BME280;52445;52.466;-1.016;2023-12-22T00:27:23;99554.03;;;9.01;66.65
65718;BME280;52445;52.466;-1.016;2023-12-22T00:29:50;99542.84;;;9.05;66.73
65718;BME280;52445;52.466;-1.016;2023-12-22T00:32:16;99548.03;;;9.00;66.61
65718;BME280;52445;52.466;-1.016;2023-12-22T00:34:43;99560.97;;;8.99;66.54
65718;BME280;52445;52.466;-1.016;2023-12-22T00:37:13;99555.75;;;9.05;66.82
65718;BME280;52445;52.466;-1.016;2023-12-22T00:39:40;99571.28;;;9.00;66.93
65718;BME280;52445;52.466;-1.016;2023-12-22T00:42:07;99560.03;;;9.08;67.22
65718;BME280;52445;52.466;-1.016;2023-12-22T00:44:34;99567.84;;;9.03;66.96
65718;BME280;52445;52.466;-1.016;2023-12-22T00:47:01;99561.78;;;9.10;67.22
65718;BME280;52445;52.466;-1.016;2023-12-22T00:49:29;99570.38;;;9.09;67.16
65718;BME280;52445;52.466;-1.016;2023-12-22T00:51:55;99560.91;;;9.08;67.16
65718;BME280;52445;52.466;-1.016;2023-12-22T00:54:23;99557.50;;;9.06;67.25
65718;BME280;52445;52.466;-1.016;2023-12-22T00:56:51;99551.44;;;9.06;67.04
65718;BME280;52445;52.466;-1.016;2023-12-22T00:59:18;99546.28;;;9.06;67.52
65718;BME280;52445;52.466;-1.016;2023-12-22T01:01:45;99553.16;;;9.04;67.47
65718;BME280;52445;52.466;-1.016;2023-12-22T01:04:12;99557.50;;;8.98;67.95
65718;BME280;52445;52.466;-1.016;2023-12-22T01:06:39;99559.19;;;9.06;67.63
65718;BME280;52445;52.466;-1.016;2023-12-22T01:09:06;99554.88;;;9.09;67.79
65718;BME280;52445;52.466;-1.016;2023-12-22T01:11:35;99560.03;;;9.11;67.98
65718;BME280;52445;52.466;-1.016;2023-12-22T01:14:05;99558.31;;;9.11;68.16
65718;BME280;52445;52.466;-1.016;2023-12-22T01:16:33;99554.84;;;9.14;68.24
65718;BME280;52445;52.466;-1.016;2023-12-22T01:19:00;99553.13;;;9.15;68.46
65718;BME280;52445;52.466;-1.016;2023-12-22T01:21:27;99556.56;;;9.15;68.54
65718;BME280;52445;52.466;-1.016;2023-12-22T01:23:55;99561.72;;;9.21;68.34
65718;BME280;52445;52.466;-1.016;2023-12-22T01:26:22;99560.81;;;9.25;68.76
65718;BME280;52445;52.466;-1.016;2023-12-22T01:28:50;99556.53;;;9.26;68.32
65718;BME280;52445;52.466;-1.016;2023-12-22T01:31:17;99556.53;;;9.24;68.58
65718;BME280;52445;52.466;-1.016;2023-12-22T01:33:46;99552.19;;;9.30;68.60
65718;BME280;52445;52.466;-1.016;2023-12-22T01:36:14;99551.31;;;9.31;68.72
65718;BME280;52445;52.466;-1.016;2023-12-22T01:38:41;99546.13;;;9.32;69.12
65718;BME280;52445;52.466;-1.016;2023-12-22T01:41:08;99554.75;;;9.36;69.41
65718;BME280;52445;52.466;-1.016;2023-12-22T01:43:36;99558.22;;;9.32;70.08
65718;BME280;52445;52.466;-1.016;2023-12-22T01:46:03;99559.94;;;9.30;70.25
65718;BME280;52445;52.466;-1.016;2023-12-22T01:48:32;99563.41;;;9.25;70.68
65718;BME280;52445;52.466;-1.016;2023-12-22T01:51:01;99558.25;;;9.25;70.27
65718;BME280;52445;52.466;-1.016;2023-12-22T01:53:29;99554.88;;;9.08;72.73
65718;BME280;52445;52.466;-1.016;2023-12-22T01:55:59;99545.41;;;9.08;73.15
65718;BME280;52445;52.466;-1.016;2023-12-22T01:58:27;99548.88;;;9.09;73.02
65718;BME280;52445;52.466;-1.016;2023-12-22T02:00:56;99548.00;;;9.10;73.28
65718;BME280;52445;52.466;-1.016;2023-12-22T02:03:25;99546.28;;;9.06;73.12
65718;BME280;52445;52.466;-1.016;2023-12-22T02:05:53;99548.88;;;9.04;73.25
65718;BME280;52445;52.466;-1.016;2023-12-22T02:08:21;99553.22;;;9.00;73.74
65718;BME280;52445;52.466;-1.016;2023-12-22T02:10:50;99546.28;;;9.01;73.21
65718;BME280;52445;52.466;-1.016;2023-12-22T02:13:16;99548.88;;;8.99;73.99
65718;BME280;52445;52.466;-1.016;2023-12-22T02:15:44;99549.75;;;8.98;73.97
65718;BME280;52445;52.466;-1.016;2023-12-22T02:18:16;99539.44;;;8.95;74.45
65718;BME280;52445;52.466;-1.016;2023-12-22T02:20:45;99542.88;;;8.94;74.52
65718;BME280;52445;52.466;-1.016;2023-12-22T02:23:12;99529.16;;;8.89;75.53
65718;BME280;52445;52.466;-1.016;2023-12-22T02:25:39;99525.69;;;8.90;75.13
65718;BME280;52445;52.466;-1.016;2023-12-22T02:28:09;99518.81;;;8.89;74.98
65718;BME280;52445;52.466;-1.016;2023-12-22T02:31:01;99513.66;;;8.83;76.24
65718;BME280;52445;52.466;-1.016;2023-12-22T02:33:31;99528.28;;;8.87;75.48
65718;BME280;52445;52.466;-1.016;2023-12-22T02:36:03;99524.81;;;8.86;75.50
65718;BME280;52445;52.466;-1.016;2023-12-22T02:38:30;99513.66;;;8.86;76.18
65718;BME280;52445;52.466;-1.016;2023-12-22T02:40:58;99507.63;;;8.85;76.30
65718;BME280;52445;52.466;-1.016;2023-12-22T02:43:25;99509.38;;;8.83;77.31
65718;BME280;52445;52.466;-1.016;2023-12-22T02:45:53;99512.78;;;8.84;76.74
65718;BME280;52445;52.466;-1.016;2023-12-22T02:48:20;99524.00;;;8.83;77.03
65718;BME280;52445;52.466;-1.016;2023-12-22T02:50:47;99519.66;;;8.88;76.55
65718;BME280;52445;52.466;-1.016;2023-12-22T02:53:13;99508.50;;;8.83;77.48
65718;BME280;52445;52.466;-1.016;2023-12-22T02:55:40;99511.91;;;8.88;77.28
65718;BME280;52445;52.466;-1.016;2023-12-22T02:58:07;99506.75;;;8.86;77.22
65718;BME280;52445;52.466;-1.016;2023-12-22T03:00:33;99499.00;;;8.88;77.67
65718;BME280;52445;52.466;-1.016;2023-12-22T03:03:00;99503.31;;;8.89;77.40
65718;BME280;52445;52.466;-1.016;2023-12-22T03:05:26;99489.53;;;8.90;77.56
65718;BME280;52445;52.466;-1.016;2023-12-22T03:07:53;99486.06;;;8.93;77.16
65718;BME280;52445;52.466;-1.016;2023-12-22T03:10:20;99480.91;;;8.94;77.45
65718;BME280;52445;52.466;-1.016;2023-12-22T03:12:47;99486.06;;;8.94;77.10
65718;BME280;52445;52.466;-1.016;2023-12-22T03:15:14;99469.69;;;8.94;77.82
65718;BME280;52445;52.466;-1.016;2023-12-22T03:17:40;99474.03;;;8.93;78.17
65718;BME280;52445;52.466;-1.016;2023-12-22T03:20:07;99475.72;;;8.96;78.03
65718;BME280;52445;52.466;-1.016;2023-12-22T03:22:34;99477.44;;;8.95;78.82
65718;BME280;52445;52.466;-1.016;2023-12-22T03:25:01;99463.69;;;8.93;78.91
65718;BME280;52445;52.466;-1.016;2023-12-22T03:27:27;99479.22;;;8.87;80.24
65718;BME280;52445;52.466;-1.016;2023-12-22T03:29:54;99457.66;;;8.93;80.17
65718;BME280;52445;52.466;-1.016;2023-12-22T03:32:21;99453.38;;;8.90;80.23
65718;BME280;52445;52.466;-1.016;2023-12-22T03:34:48;99464.53;;;8.94;80.16
65718;BME280;52445;52.466;-1.016;2023-12-22T03:37:14;99470.56;;;8.91;81.06
65718;BME280;52445;52.466;-1.016;2023-12-22T03:39:41;99468.00;;;8.93;81.03
65718;BME280;52445;52.466;-1.016;2023-12-22T03:42:08;99472.28;;;8.95;80.57
65718;BME280;52445;52.466;-1.016;2023-12-22T03:44:34;99458.47;;;9.03;79.82
65718;BME280;52445;52.466;-1.016;2023-12-22T03:47:01;99460.16;;;9.04;80.62
65718;BME280;52445;52.466;-1.016;2023-12-22T03:49:28;99468.78;;;9.06;79.90
65718;BME280;52445;52.466;-1.016;2023-12-22T03:51:54;99464.44;;;9.09;80.26
65718;BME280;52445;52.466;-1.016;2023-12-22T03:54:21;99473.06;;;9.11;79.69
65718;BME280;52445;52.466;-1.016;2023-12-22T03:56:47;99467.03;;;9.11;80.22
65718;BME280;52445;52.466;-1.016;2023-12-22T03:59:14;99478.22;;;9.10;80.58
65718;BME280;52445;52.466;-1.016;2023-12-22T04:01:41;99466.13;;;9.13;79.94
65718;BME280;52445;52.466;-1.016;2023-12-22T04:04:08;99473.88;;;9.18;79.87
65718;BME280;52445;52.466;-1.016;2023-12-22T04:06:38;99455.78;;;9.18;80.17
65718;BME280;52445;52.466;-1.016;2023-12-22T04:09:06;99460.06;;;9.19;80.20
65718;BME280;52445;52.466;-1.016;2023-12-22T04:11:33;99458.34;;;9.21;80.13
65718;BME280;52445;52.466;-1.016;2023-12-22T04:14:05;99453.19;;;9.18;80.54
65718;BME280;52445;52.466;-1.016;2023-12-22T04:16:32;99446.25;;;9.23;80.12
65718;BME280;52445;52.466;-1.016;2023-12-22T04:18:59;99446.25;;;9.23;80.55
65718;BME280;52445;52.466;-1.016;2023-12-22T04:21:26;99438.50;;;9.26;80.06
65718;BME280;52445;52.466;-1.016;2023-12-22T04:23:52;99437.66;;;9.24;80.59
65718;BME280;52445;52.466;-1.016;2023-12-22T04:26:19;99423.84;;;9.29;80.09
65718;BME280;52445;52.466;-1.016;2023-12-22T04:28:46;99427.31;;;9.28;80.12
65718;BME280;52445;52.466;-1.016;2023-12-22T04:31:12;99412.66;;;9.25;80.37
65718;BME280;52445;52.466;-1.016;2023-12-22T04:33:40;99418.72;;;9.22;81.59
65718;BME280;52445;52.466;-1.016;2023-12-22T04:36:07;99418.69;;;9.25;80.74
65718;BME280;52445;52.466;-1.016;2023-12-22T04:38:34;99422.16;;;9.28;80.85
65718;BME280;52445;52.466;-1.016;2023-12-22T04:41:01;99431.59;;;9.32;80.52
65718;BME280;52445;52.466;-1.016;2023-12-22T04:43:29;99424.69;;;9.32;80.38
65718;BME280;52445;52.466;-1.016;2023-12-22T04:45:57;99432.41;;;9.34;80.07
65718;BME280;52445;52.466;-1.016;2023-12-22T04:48:24;99440.13;;;9.42;80.63
65718;BME280;52445;52.466;-1.016;2023-12-22T04:50:51;99447.88;;;9.43;80.17
65718;BME280;52445;52.466;-1.016;2023-12-22T04:53:17;99443.50;;;9.48;79.82
65718;BME280;52445;52.466;-1.016;2023-12-22T04:55:44;99450.41;;;9.49;80.51
65718;BME280;52445;52.466;-1.016;2023-12-22T04:58:11;99462.50;;;9.46;80.91
65718;BME280;52445;52.466;-1.016;2023-12-22T05:00:38;99447.81;;;9.49;80.71
65718;BME280;52445;52.466;-1.016;2023-12-22T05:03:04;99452.97;;;9.49;80.70
65718;BME280;52445;52.466;-1.016;2023-12-22T05:05:31;99444.34;;;9.52;80.25
65718;BME280;52445;52.466;-1.016;2023-12-22T05:07:58;99448.69;;;9.47;80.65
65718;BME280;52445;52.466;-1.016;2023-12-22T05:10:27;99444.31;;;9.54;80.53
65718;BME280;52445;52.466;-1.016;2023-12-22T05:12:53;99441.75;;;9.54;80.60
65718;BME280;52445;52.466;-1.016;2023-12-22T05:15:20;99444.34;;;9.52;80.57
65718;BME280;52445;52.466;-1.016;2023-12-22T05:17:47;99437.47;;;9.49;81.55
65718;BME280;52445;52.466;-1.016;2023-12-22T05:20:14;99437.44;;;9.52;80.83
65718;BME280;52445;52.466;-1.016;2023-12-22T05:22:41;99438.31;;;9.55;81.02
65718;BME280;52445;52.466;-1.016;2023-12-22T05:25:08;99423.63;;;9.57;80.59
65718;BME280;52445;52.466;-1.016;2023-12-22T05:27:36;99435.66;;;9.61;80.76
65718;BME280;52445;52.466;-1.016;2023-12-22T05:30:03;99437.34;;;9.65;80.34
65718;BME280;52445;52.466;-1.016;2023-12-22T05:32:31;99441.63;;;9.68;80.17
65718;BME280;52445;52.466;-1.016;2023-12-22T05:34:58;99436.44;;;9.71;79.90
65718;BME280;52445;52.466;-1.016;2023-12-22T05:37:25;99428.69;;;9.69;80.11
65718;BME280;52445;52.466;-1.016;2023-12-22T05:39:52;99409.78;;;9.64;79.91
65718;BME280;52445;52.466;-1.016;2023-12-22T05:42:19;99432.09;;;9.74;79.83
65718;BME280;52445;52.466;-1.016;2023-12-22T05:44:46;99418.31;;;9.72;79.85
65718;BME280;52445;52.466;-1.016;2023-12-22T05:47:16;99414.84;;;9.73;80.24
65718;BME280;52445;52.466;-1.016;2023-12-22T05:49:44;99422.59;;;9.73;79.58
65718;BME280;52445;52.466;-1.016;2023-12-22T05:52:12;99405.38;;;9.74;79.39
65718;BME280;52445;52.466;-1.016;2023-12-22T05:54:38;99411.44;;;9.71;80.04
65718;BME280;52445;52.466;-1.016;2023-12-22T05:57:05;99413.13;;;9.72;79.61
65718;BME280;52445;52.466;-1.016;2023-12-22T05:59:33;99416.59;;;9.71;79.65
65718;BME280;52445;52.466;-1.016;2023-12-22T06:02:02;99415.75;;;9.71;79.90
65718;BME280;52445;52.466;-1.016;2023-12-22T06:04:29;99422.66;;;9.70;79.86
65718;BME280;52445;52.466;-1.016;2023-12-22T06:06:56;99440.75;;;9.70;79.51
65718;BME280;52445;52.466;-1.016;2023-12-22T06:09:23;99435.53;;;9.73;79.76
65718;BME280;52445;52.466;-1.016;2023-12-22T06:11:50;99425.19;;;9.73;79.40
65718;BME280;52445;52.466;-1.016;2023-12-22T06:14:18;99429.56;;;9.68;79.97
65718;BME280;52445;52.466;-1.016;2023-12-22T06:16:46;99426.97;;;9.68;79.54
65718;BME280;52445;52.466;-1.016;2023-12-22T06:19:12;99427.00;;;9.62;80.16
65718;BME280;52445;52.466;-1.016;2023-12-22T06:21:39;99438.25;;;9.59;79.98
65718;BME280;52445;52.466;-1.016;2023-12-22T06:24:10;99435.72;;;9.55;79.93
65718;BME280;52445;52.466;-1.016;2023-12-22T06:26:37;99422.75;;;9.56;79.99
65718;BME280;52445;52.466;-1.016;2023-12-22T06:29:04;99432.25;;;9.59;79.92
65718;BME280;52445;52.466;-1.016;2023-12-22T06:31:31;99432.25;;;9.56;79.94
65718;BME280;52445;52.466;-1.016;2023-12-22T06:33:57;99436.56;;;9.54;80.33
65718;BME280;52445;52.466;-1.016;2023-12-22T06:36:29;99441.69;;;9.63;80.23
65718;BME280;52445;52.466;-1.016;2023-12-22T06:38:57;99439.13;;;9.60;80.39
65718;BME280;52445;52.466;-1.016;2023-12-22T06:41:26;99440.91;;;9.55;80.28
65718;BME280;52445;52.466;-1.016;2023-12-22T06:43:55;99452.94;;;9.59;80.41
65718;BME280;52445;52.466;-1.016;2023-12-22T06:46:23;99444.31;;;9.57;80.16
65718;BME280;52445;52.466;-1.016;2023-12-22T06:48:53;99459.78;;;9.63;80.14
65718;BME280;52445;52.466;-1.016;2023-12-22T06:51:21;99458.13;;;9.56;79.96
65718;BME280;52445;52.466;-1.016;2023-12-22T06:53:49;99461.56;;;9.55;80.58
65718;BME280;52445;52.466;-1.016;2023-12-22T06:56:20;99442.63;;;9.52;80.79
65718;BME280;52445;52.466;-1.016;2023-12-22T06:58:48;99447.78;;;9.52;80.63
65718;BME280;52445;52.466;-1.016;2023-12-22T07:03:56;99432.13;;;9.71;80.02
65718;BME280;52445;52.466;-1.016;2023-12-22T07:06:24;99437.44;;;9.56;80.30
65718;BME280;52445;52.466;-1.016;2023-12-22T07:11:34;99440.91;;;9.55;80.76
65718;BME280;52445;52.466;-1.016;2023-12-22T07:14:03;99445.19;;;9.52;80.65
65718;BME280;52445;52.466;-1.016;2023-12-22T07:16:30;99446.91;;;9.57;80.47
65718;BME280;52445;52.466;-1.016;2023-12-22T07:18:58;99447.75;;;9.59;80.58
65718;BME280;52445;52.466;-1.016;2023-12-22T07:21:25;99459.78;;;9.63;80.13
65718;BME280;52445;52.466;-1.016;2023-12-22T07:23:52;99451.16;;;9.64;79.96
65718;BME280;52445;52.466;-1.016;2023-12-22T07:26:19;99457.19;;;9.63;79.85
65718;BME280;52445;52.466;-1.016;2023-12-22T07:28:48;99480.47;;;9.61;80.19
65718;BME280;52445;52.466;-1.016;2023-12-22T07:31:18;99480.41;;;9.66;80.66
65718;BME280;52445;52.466;-1.016;2023-12-22T07:33:45;99475.22;;;9.69;80.27
65718;BME280;52445;52.466;-1.016;2023-12-22T07:36:14;99466.75;;;9.55;80.76
65718;BME280;52445;52.466;-1.016;2023-12-22T07:38:42;99473.53;;;9.65;80.59
65718;BME280;52445;52.466;-1.016;2023-12-22T07:41:08;99476.16;;;9.60;80.83
65718;BME280;52445;52.466;-1.016;2023-12-22T07:43:39;99470.94;;;9.65;80.13
65718;BME280;52445;52.466;-1.016;2023-12-22T07:46:06;99473.59;;;9.59;80.98
65718;BME280;52445;52.466;-1.016;2023-12-22T07:48:36;99475.25;;;9.66;80.28
65718;BME280;52445;52.466;-1.016;2023-12-22T07:51:03;99483.94;;;9.59;80.41
65718;BME280;52445;52.466;-1.016;2023-12-22T07:53:30;99481.28;;;9.65;80.93
65718;BME280;52445;52.466;-1.016;2023-12-22T07:55:57;99477.88;;;9.61;80.21
65718;BME280;52445;52.466;-1.016;2023-12-22T07:58:25;99470.13;;;9.63;79.94
65718;BME280;52445;52.466;-1.016;2023-12-22T08:00:52;99464.06;;;9.64;80.44
65718;BME280;52445;52.466;-1.016;2023-12-22T08:03:18;99485.63;;;9.63;80.33
65718;BME280;52445;52.466;-1.016;2023-12-22T08:05:46;99485.59;;;9.66;80.04
65718;BME280;52445;52.466;-1.016;2023-12-22T08:08:13;99483.91;;;9.62;79.54
65718;BME280;52445;52.466;-1.016;2023-12-22T08:10:40;99482.25;;;9.55;79.32
65718;BME280;52445;52.466;-1.016;2023-12-22T08:13:06;99489.97;;;9.59;79.90
65718;BME280;52445;52.466;-1.016;2023-12-22T08:15:33;99491.66;;;9.63;79.40
65718;BME280;52445;52.466;-1.016;2023-12-22T08:18:03;99483.94;;;9.59;80.15
65718;BME280;52445;52.466;-1.016;2023-12-22T08:20:31;99483.88;;;9.65;79.39
65718;BME280;52445;52.466;-1.016;2023-12-22T08:23:03;99489.13;;;9.56;80.29
65718;BME280;52445;52.466;-1.016;2023-12-22T08:25:36;99509.81;;;9.56;80.47
65718;BME280;52445;52.466;-1.016;2023-12-22T08:28:03;99518.38;;;9.61;80.31
65718;BME280;52445;52.466;-1.016;2023-12-22T08:30:30;99518.47;;;9.48;81.10
65718;BME280;52445;52.466;-1.016;2023-12-22T08:32:56;99522.72;;;9.59;80.96
65718;BME280;52445;52.466;-1.016;2023-12-22T08:35:24;99520.09;;;9.62;80.60
65718;BME280;52445;52.466;-1.016;2023-12-22T08:37:51;99511.53;;;9.54;80.83
65718;BME280;52445;52.466;-1.016;2023-12-22T08:40:18;99509.84;;;9.52;80.60
65718;BME280;52445;52.466;-1.016;2023-12-22T08:42:52;99523.63;;;9.51;80.83
65718;BME280;52445;52.466;-1.016;2023-12-22T08:45:27;99509.88;;;9.46;80.50
65718;BME280;52445;52.466;-1.016;2023-12-22T08:47:56;99517.59;;;9.51;80.70
65718;BME280;52445;52.466;-1.016;2023-12-22T08:50:24;99518.50;;;9.42;80.63
65718;BME280;52445;52.466;-1.016;2023-12-22T08:52:51;99530.53;;;9.49;81.24
65718;BME280;52445;52.466;-1.016;2023-12-22T08:55:18;99523.66;;;9.48;80.61
65718;BME280;52445;52.466;-1.016;2023-12-22T08:57:45;99522.78;;;9.49;80.90
65718;BME280;52445;52.466;-1.016;2023-12-22T09:00:22;99520.25;;;9.43;81.01
65718;BME280;52445;52.466;-1.016;2023-12-22T09:02:50;99513.28;;;9.55;80.21
65718;BME280;52445;52.466;-1.016;2023-12-22T09:05:17;99528.78;;;9.55;80.64
65718;BME280;52445;52.466;-1.016;2023-12-22T09:07:46;99527.03;;;9.60;80.60
65718;BME280;52445;52.466;-1.016;2023-12-22T09:10:13;99523.56;;;9.58;79.90
65718;BME280;52445;52.466;-1.016;2023-12-22T09:12:40;99538.25;;;9.56;80.29
65718;BME280;52445;52.466;-1.016;2023-12-22T09:15:07;99540.84;;;9.56;80.55
65718;BME280;52445;52.466;-1.016;2023-12-22T09:17:33;99544.25;;;9.61;80.32
65718;BME280;52445;52.466;-1.016;2023-12-22T09:20:02;99557.09;;;9.72;80.03
65718;BME280;52445;52.466;-1.016;2023-12-22T09:22:29;99539.84;;;9.74;80.01
65718;BME280;52445;52.466;-1.016;2023-12-22T09:24:55;99540.72;;;9.73;79.30
65718;BME280;52445;52.466;-1.016;2023-12-22T09:27:22;99542.44;;;9.72;79.33
65718;BME280;52445;52.466;-1.016;2023-12-22T09:29:49;99528.63;;;9.76;79.70
65718;BME280;52445;52.466;-1.016;2023-12-22T09:32:17;99518.25;;;9.80;78.87
65718;BME280;52445;52.466;-1.016;2023-12-22T09:34:43;99526.91;;;9.75;78.69
65718;BME280;52445;52.466;-1.016;2023-12-22T09:37:10;99534.59;;;9.85;78.71
65718;BME280;52445;52.466;-1.016;2023-12-22T09:39:38;99543.25;;;9.77;79.08
65718;BME280;52445;52.466;-1.016;2023-12-22T09:42:05;99544.09;;;9.86;78.49
65718;BME280;52445;52.466;-1.016;2023-12-22T09:44:32;99561.31;;;9.87;78.97
65718;BME280;52445;52.466;-1.016;2023-12-22T09:47:03;99541.50;;;9.83;79.02
65718;BME280;52445;52.466;-1.016;2023-12-22T09:49:30;99552.75;;;9.79;78.82
65718;BME280;52445;52.466;-1.016;2023-12-22T09:51:58;99566.47;;;9.90;78.01
65718;BME280;52445;52.466;-1.016;2023-12-22T09:54:25;99574.19;;;9.93;78.69
65718;BME280;52445;52.466;-1.016;2023-12-22T09:56:53;99569.03;;;9.92;77.92
65718;BME280;52445;52.466;-1.016;2023-12-22T09:59:21;99581.03;;;9.97;78.10
65718;BME280;52445;52.466;-1.016;2023-12-22T10:01:49;99574.13;;;10.01;78.49
65718;BME280;52445;52.466;-1.016;2023-12-22T10:04:19;99570.66;;;10.03;77.91
65718;BME280;52445;52.466;-1.016;2023-12-22T10:06:48;99568.03;;;10.08;78.10
65718;BME280;52445;52.466;-1.016;2023-12-22T10:09:16;99571.50;;;10.06;78.63
65718;BME280;52445;52.466;-1.016;2023-12-22T10:11:44;99581.00;;;10.05;78.00
65718;BME280;52445;52.466;-1.016;2023-12-22T10:14:23;99586.97;;;10.12;78.32
65718;BME280;52445;52.466;-1.016;2023-12-22T10:16:52;99583.56;;;10.10;77.99
65718;BME280;52445;52.466;-1.016;2023-12-22T10:19:19;99574.06;;;10.09;77.44
65718;BME280;52445;52.466;-1.016;2023-12-22T10:21:48;99573.22;;;10.10;78.23
65718;BME280;52445;52.466;-1.016;2023-12-22T10:24:43;99586.16;;;10.08;77.54
65718;BME280;52445;52.466;-1.016;2023-12-22T10:27:14;99569.75;;;10.11;77.15
65718;BME280;52445;52.466;-1.016;2023-12-22T10:29:41;99578.38;;;10.11;77.98
65718;BME280;52445;52.466;-1.016;2023-12-22T10:32:08;99581.00;;;10.07;77.70
65718;BME280;52445;52.466;-1.016;2023-12-22T10:34:35;99574.13;;;10.02;77.83
65718;BME280;52445;52.466;-1.016;2023-12-22T10:37:03;99570.63;;;10.10;76.99
65718;BME280;52445;52.466;-1.016;2023-12-22T10:39:31;99570.63;;;10.08;77.36
65718;BME280;52445;52.466;-1.016;2023-12-22T10:41:58;99577.50;;;10.12;77.35
65718;BME280;52445;52.466;-1.016;2023-12-22T10:44:27;99580.06;;;10.14;77.50
65718;BME280;52445;52.466;-1.016;2023-12-22T10:46:55;99580.91;;;10.16;77.49
65718;BME280;52445;52.466;-1.016;2023-12-22T10:49:22;99584.44;;;10.06;77.66
65718;BME280;52445;52.466;-1.016;2023-12-22T10:51:50;99590.41;;;10.14;77.81
65718;BME280;52445;52.466;-1.016;2023-12-22T10:54:17;99603.38;;;10.09;77.52
65718;BME280;52445;52.466;-1.016;2023-12-22T10:56:44;99593.03;;;10.09;77.36
65718;BME280;52445;52.466;-1.016;2023-12-22T10:59:11;99587.94;;;10.00;77.69
65718;BME280;52445;52.466;-1.016;2023-12-22T11:01:38;99593.84;;;10.13;77.46
65718;BME280;52445;52.466;-1.016;2023-12-22T11:04:07;99588.66;;;10.19;77.63
65718;BME280;52445;52.466;-1.016;2023-12-22T11:06:37;99578.34;;;10.13;77.47
65718;BME280;52445;52.466;-1.016;2023-12-22T11:09:07;99574.88;;;10.17;77.66
65718;BME280;52445;52.466;-1.016;2023-12-22T11:11:38;99581.66;;;10.27;77.01
65718;BME280;52445;52.466;-1.016;2023-12-22T11:14:06;99568.75;;;10.24;76.63
65718;BME280;52445;52.466;-1.016;2023-12-22T11:16:34;99584.25;;;10.27;76.96
65718;BME280;52445;52.466;-1.016;2023-12-22T11:19:03;99586.78;;;10.34;76.23
65718;BME280;52445;52.466;-1.016;2023-12-22T11:21:30;99591.09;;;10.36;76.57
65718;BME280;52445;52.466;-1.016;2023-12-22T11:23:57;99572.22;;;10.22;76.93
65718;BME280;52445;52.466;-1.016;2023-12-22T11:26:24;99586.88;;;10.24;77.07
65718;BME280;52445;52.466;-1.016;2023-12-22T11:28:52;99591.22;;;10.19;76.71
65718;BME280;52445;52.466;-1.016;2023-12-22T11:31:23;99605.81;;;10.29;76.07
65718;BME280;52445;52.466;-1.016;2023-12-22T11:33:54;99600.63;;;10.29;75.67
65718;BME280;52445;52.466;-1.016;2023-12-22T11:36:35;99599.75;;;10.34;75.72
65718;BME280;52445;52.466;-1.016;2023-12-22T11:39:03;99605.03;;;10.20;75.57
65718;BME280;52445;52.466;-1.016;2023-12-22T11:41:33;99602.31;;;10.37;75.94
65718;BME280;52445;52.466;-1.016;2023-12-22T11:44:01;99602.31;;;10.35;75.56
65718;BME280;52445;52.466;-1.016;2023-12-22T11:46:30;99588.53;;;10.32;75.87
65718;BME280;52445;52.466;-1.016;2023-12-22T11:48:57;99588.53;;;10.32;74.96
65718;BME280;52445;52.466;-1.016;2023-12-22T11:51:31;99585.13;;;10.29;75.55
65718;BME280;52445;52.466;-1.016;2023-12-22T11:54:01;99596.34;;;10.27;76.02
65718;BME280;52445;52.466;-1.016;2023-12-22T11:56:28;99591.09;;;10.36;75.99
65718;BME280;52445;52.466;-1.016;2023-12-22T11:58:56;99592.78;;;10.37;75.13
65718;BME280;52445;52.466;-1.016;2023-12-22T12:01:26;99597.13;;;10.37;75.49
65718;BME280;52445;52.466;-1.016;2023-12-22T12:03:58;99603.16;;;10.34;76.16
65718;BME280;52445;52.466;-1.016;2023-12-22T12:09:05;99606.66;;;10.32;75.16
65718;BME280;52445;52.466;-1.016;2023-12-22T12:14:32;99605.75;;;10.36;75.48
65718;BME280;52445;52.466;-1.016;2023-12-22T12:17:08;99597.97;;;10.37;76.24
65718;BME280;52445;52.466;-1.016;2023-12-22T12:19:38;99600.63;;;10.29;76.83
65718;BME280;52445;52.466;-1.016;2023-12-22T12:22:07;99609.25;;;10.32;76.60
65718;BME280;52445;52.466;-1.016;2023-12-22T12:24:36;99597.19;;;10.31;76.38
65718;BME280;52445;52.466;-1.016;2023-12-22T12:27:03;99613.72;;;10.12;77.75
65718;BME280;52445;52.466;-1.016;2023-12-22T12:29:31;99616.22;;;10.23;77.12
65718;BME280;52445;52.466;-1.016;2023-12-22T12:32:06;99633.53;;;10.16;76.55
65718;BME280;52445;52.466;-1.016;2023-12-22T12:34:33;99610.22;;;10.21;77.36
65718;BME280;52445;52.466;-1.016;2023-12-22T12:37:00;99611.06;;;10.20;76.38
65718;BME280;52445;52.466;-1.016;2023-12-22T12:39:30;99602.34;;;10.31;76.36
65718;BME280;52445;52.466;-1.016;2023-12-22T12:41:59;99583.31;;;10.38;76.53
65718;BME280;52445;52.466;-1.016;2023-12-22T12:44:27;99598.84;;;10.38;76.65
65718;BME280;52445;52.466;-1.016;2023-12-22T12:46:55;99596.22;;;10.44;76.76
65718;BME280;52445;52.466;-1.016;2023-12-22T12:49:22;99602.38;;;10.27;76.64
65718;BME280;52445;52.466;-1.016;2023-12-22T12:51:53;99604.13;;;10.24;76.79
65718;BME280;52445;52.466;-1.016;2023-12-22T12:54:20;99623.00;;;10.38;76.71
65718;BME280;52445;52.466;-1.016;2023-12-22T12:56:47;99630.81;;;10.34;77.62
65718;BME280;52445;52.466;-1.016;2023-12-22T12:59:16;99623.03;;;10.34;76.71
65718;BME280;52445;52.466;-1.016;2023-12-22T13:01:46;99642.06;;;10.26;77.48
65718;BME280;52445;52.466;-1.016;2023-12-22T13:04:14;99643.78;;;10.27;77.72
65718;BME280;52445;52.466;-1.016;2023-12-22T13:06:45;99648.19;;;10.16;77.52
65718;BME280;52445;52.466;-1.016;2023-12-22T13:09:12;99633.56;;;10.12;78.51
65718;BME280;52445;52.466;-1.016;2023-12-22T13:11:40;99649.94;;;10.12;77.74